Time;durP1;ratioP1;P1;durP2;ratioP2;P2;SDS_P1;SDS_P2;PMS_P1;PMS_P2;Temp;Humidity;BMP_temperature;BMP_pressure;BME280_temperature;BME280_humidity;BME280_pressure;Samples;Min_cycle;Max_cycle;Signal;HPM_P1;HPM_P2
2021/08/17 00:01:42;;;;;;;7.17;4.13;;;;;;;23.22;100.00;97548.59;4970054;28;20313;-72
2021/08/17 00:04:08;;;;;;;5.40;3.90;;;;;;;23.18;100.00;97539.97;4970371;28;20213;-74
2021/08/17 00:06:35;;;;;;;6.70;4.20;;;;;;;23.17;100.00;97545.06;4956556;28;20696;-71
2021/08/17 00:09:02;;;;;;;6.63;4.20;;;;;;;23.24;100.00;97555.50;4971693;28;20231;-76
2021/08/17 00:11:28;;;;;;;7.37;4.33;;;;;;;23.24;100.00;97552.94;4968751;28;20207;-70
2021/08/17 00:13:55;;;;;;;4.63;3.60;;;;;;;23.24;100.00;97552.94;4972797;28;20454;-68
2021/08/17 00:16:22;;;;;;;6.03;4.07;;;;;;;23.24;100.00;97549.53;4971968;28;20661;-69
2021/08/17 00:18:48;;;;;;;5.13;3.90;;;;;;;23.24;100.00;97546.97;4971428;28;20703;-71
2021/08/17 00:21:15;;;;;;;4.87;3.70;;;;;;;23.16;100.00;97538.19;4970680;28;20633;-71
2021/08/17 00:23:41;;;;;;;6.07;4.20;;;;;;;23.22;100.00;97554.59;4970814;28;20574;-70
2021/08/17 00:26:08;;;;;;;5.70;3.90;;;;;;;23.11;100.00;97530.41;4973684;28;20863;-74
2021/08/17 00:28:35;;;;;;;7.93;3.90;;;;;;;23.16;100.00;97546.78;4970821;28;20778;-73
2021/08/17 00:31:01;;;;;;;6.23;3.80;;;;;;;23.14;100.00;97545.84;4968987;28;20743;-71
2021/08/17 00:33:30;;;;;;;6.63;4.40;;;;;;;23.23;100.00;97553.75;4972366;28;20227;-73
2021/08/17 00:35:56;;;;;;;6.57;4.20;;;;;;;23.11;100.00;97534.66;4973015;28;20298;-72
2021/08/17 00:38:23;;;;;;;5.77;4.03;;;;;;;23.18;100.00;97554.50;4956072;28;20235;-72
2021/08/17 00:40:52;;;;;;;4.67;3.70;;;;;;;23.18;100.00;97559.63;4970095;28;20305;-68
2021/08/17 00:43:18;;;;;;;5.10;3.50;;;;;;;22.98;100.00;97515.53;4970786;28;20261;-74
2021/08/17 00:45:45;;;;;;;6.03;3.77;;;;;;;23.18;100.00;97559.63;4970592;28;20231;-75
2021/08/17 00:48:11;;;;;;;5.43;4.30;;;;;;;23.11;100.00;97547.47;4971457;28;20205;-73
2021/08/17 00:50:38;;;;;;;6.27;4.30;;;;;;;23.18;100.00;97559.63;4967937;28;20346;-74
2021/08/17 00:53:04;;;;;;;5.87;4.00;;;;;;;23.10;100.00;97556.00;4970129;28;20318;-69
2021/08/17 00:55:34;;;;;;;7.40;4.47;;;;;;;23.17;100.00;97561.31;4971229;28;20306;-72
2021/08/17 00:58:01;;;;;;;5.07;3.83;;;;;;;23.18;100.00;97557.06;4976875;28;21067;-70
2021/08/17 01:00:27;;;;;;;5.90;4.10;;;;;;;23.17;100.00;97566.44;4966429;28;20302;-74
2021/08/17 01:02:54;;;;;;;8.50;3.60;;;;;;;23.08;100.00;97553.41;4970232;28;20660;-71
2021/08/17 01:05:25;;;;;;;4.40;3.90;;;;;;;23.18;100.00;97572.44;4969179;28;20214;-74
2021/08/17 01:07:52;;;;;;;6.23;3.90;;;;;;;23.05;100.00;97552.47;4969993;28;20221;-69
2021/08/17 01:10:19;;;;;;;5.30;3.90;;;;;;;23.10;100.00;97563.69;4954748;28;20226;-76
2021/08/17 01:12:45;;;;;;;4.77;3.67;;;;;;;23.19;100.00;97571.59;4935820;28;20231;-69
2021/08/17 01:15:12;;;;;;;5.53;3.80;;;;;;;23.10;100.00;97548.31;4955073;28;20298;-68
2021/08/17 01:17:39;;;;;;;4.57;3.80;;;;;;;23.19;100.00;97566.47;4970025;28;20718;-76
2021/08/17 01:20:06;;;;;;;4.87;3.73;;;;;;;23.19;100.00;97567.34;4970470;28;20215;-68
2021/08/17 01:22:33;;;;;;;7.30;4.17;;;;;;;23.11;100.00;97565.41;4951589;28;20227;-70
2021/08/17 01:24:59;;;;;;;5.67;3.80;;;;;;;22.13;100.00;97399.03;4953276;28;20723;-68
2021/08/17 01:27:26;;;;;;;8.87;3.77;;;;;;;23.07;100.00;97561.06;4970208;28;20213;-70
2021/08/17 01:29:52;;;;;;;4.73;3.80;;;;;;;23.10;100.00;97567.13;4969423;28;20538;-71
2021/08/17 01:32:19;;;;;;;5.77;3.93;;;;;;;23.20;100.00;97583.59;4967596;28;20231;-69
2021/08/17 01:34:45;;;;;;;4.67;3.53;;;;;;;23.20;100.00;97592.16;4970135;28;20301;-68
2021/08/17 01:37:12;;;;;;;4.83;3.70;;;;;;;22.92;100.00;97548.72;4969837;28;20214;-71
2021/08/17 01:39:39;;;;;;;4.73;4.00;;;;;;;23.20;100.00;97604.09;4970508;28;20603;-69
2021/08/17 01:42:06;;;;;;;5.40;3.87;;;;;;;23.13;100.00;97591.97;4967126;28;20697;-65
2021/08/17 01:44:33;;;;;;;5.80;3.93;;;;;;;23.18;100.00;97605.78;4971508;28;20302;-73
2021/08/17 01:46:59;;;;;;;6.37;3.73;;;;;;;23.12;100.00;97590.25;4971281;28;20253;-67
2021/08/17 01:49:26;;;;;;;4.80;3.70;;;;;;;23.20;100.00;97612.66;4953524;28;20787;-73
2021/08/17 01:51:53;;;;;;;4.90;3.50;;;;;;;23.20;100.00;97614.34;4965975;28;20322;-69
2021/08/17 01:54:19;;;;;;;4.23;3.60;;;;;;;23.16;100.00;97610.00;4969737;28;20290;-74
2021/08/17 01:56:46;;;;;;;4.17;3.60;;;;;;;23.21;100.00;97626.38;4971678;28;20289;-69
2021/08/17 01:59:13;;;;;;;4.60;3.80;;;;;;;23.21;100.00;97634.06;4971471;28;20214;-70
2021/08/17 02:01:43;;;;;;;3.70;3.30;;;;;;;23.14;100.00;97629.59;4966978;28;20354;-74
2021/08/17 02:04:10;;;;;;;3.70;3.13;;;;;;;23.16;100.00;97628.81;4953042;28;20238;-73
2021/08/17 02:06:36;;;;;;;4.37;3.97;;;;;;;23.12;100.00;97615.88;4970590;28;20302;-74
2021/08/17 02:09:03;;;;;;;4.63;3.80;;;;;;;23.11;100.00;97620.13;4969576;28;20315;-74
2021/08/17 02:11:30;;;;;;;4.00;3.40;;;;;;;23.21;100.00;97631.50;4968887;28;20491;-75
2021/08/17 02:13:56;;;;;;;4.83;3.60;;;;;;;23.21;100.00;97639.19;4968389;28;20293;-76
2021/08/17 02:16:23;;;;;;;4.00;3.60;;;;;;;23.13;100.00;97627.84;4969276;28;20306;-77
2021/08/17 02:18:49;;;;;;;5.07;3.97;;;;;;;23.21;100.00;97652.00;4969469;28;20302;-74
2021/08/17 02:21:16;;;;;;;3.67;3.27;;;;;;;23.12;100.00;97626.13;4968165;28;20239;-71
2021/08/17 02:23:42;;;;;;;5.00;3.80;;;;;;;23.21;100.00;97646.88;4970433;28;20798;-70
2021/08/17 02:26:09;;;;;;;3.70;3.20;;;;;;;23.21;100.00;97652.00;4969654;28;20661;-72
2021/08/17 02:28:36;;;;;;;4.03;3.50;;;;;;;23.21;100.00;97662.25;4970175;28;20293;-71
2021/08/17 02:31:02;;;;;;;4.07;3.67;;;;;;;23.19;100.00;97656.22;4967151;28;20222;-71
2021/08/17 02:33:29;;;;;;;4.87;3.77;;;;;;;23.22;100.00;97661.41;4969777;28;20338;-74
2021/08/17 02:35:55;;;;;;;4.87;3.60;;;;;;;23.09;100.00;97647.41;4970832;28;20290;-71
2021/08/17 02:38:22;;;;;;;4.57;3.43;;;;;;;23.21;100.00;97673.34;4969076;28;20232;-71
2021/08/17 02:40:48;;;;;;;6.20;3.57;;;;;;;23.20;100.00;97676.78;4968210;28;20652;-72
2021/08/17 02:43:15;;;;;;;4.97;3.83;;;;;;;23.22;100.00;97687.06;4968250;28;20708;-68
2021/08/17 02:45:42;;;;;;;5.57;3.43;;;;;;;23.20;100.00;97686.16;4970453;28;20318;-70
2021/08/17 02:48:08;;;;;;;3.70;3.20;;;;;;;23.12;100.00;97674.84;4970462;28;20696;-69
2021/08/17 02:50:35;;;;;;;3.90;3.30;;;;;;;22.27;100.00;97535.06;4950686;28;20318;-72
2021/08/17 02:53:02;;;;;;;3.87;3.53;;;;;;;23.11;100.00;97675.66;4953252;28;21125;-72
2021/08/17 02:55:28;;;;;;;4.13;3.40;;;;;;;23.16;100.00;97692.03;4953877;28;20239;-72
2021/08/17 02:57:57;;;;;;;3.43;3.03;;;;;;;23.00;100.00;97666.81;4969723;28;20276;-68
2021/08/17 03:00:24;;;;;;;3.80;3.30;;;;;;;23.15;100.00;97687.75;4951733;28;20765;-70
2021/08/17 03:02:50;;;;;;;4.60;3.60;;;;;;;23.15;100.00;97686.03;4973411;28;20258;-72
2021/08/17 03:05:17;;;;;;;3.93;3.20;;;;;;;23.14;100.00;97688.56;4971165;28;20764;-75
2021/08/17 03:07:51;;;;;;;4.20;3.37;;;;;;;23.15;100.00;97696.28;4977629;28;20304;-71
2021/08/17 03:10:19;;;;;;;3.27;2.97;;;;;;;23.15;100.00;97692.88;4976170;28;21665;-73
2021/08/17 03:12:46;;;;;;;4.27;3.27;;;;;;;23.15;100.00;97700.56;4978656;28;20321;-74
2021/08/17 03:15:13;;;;;;;4.47;3.57;;;;;;;23.11;100.00;97693.59;4976554;28;20329;-75
2021/08/17 03:17:39;;;;;;;3.83;3.43;;;;;;;23.15;100.00;97696.28;4981107;28;20272;-73
2021/08/17 03:20:07;;;;;;;5.30;3.73;;;;;;;23.15;100.00;97703.97;4980048;28;20206;-74
2021/08/17 03:22:35;;;;;;;4.53;3.27;;;;;;;23.16;100.00;97702.28;4977155;28;20230;-67
2021/08/17 03:25:02;;;;;;;4.00;2.90;;;;;;;23.05;100.00;97686.63;4961070;28;20238;-69
2021/08/17 03:27:29;;;;;;;3.57;3.27;;;;;;;23.14;100.00;97711.63;4959707;28;20333;-70
2021/08/17 03:29:56;;;;;;;4.27;3.30;;;;;;;23.17;100.00;97716.84;4981214;28;20309;-71
2021/08/17 03:32:22;;;;;;;3.70;3.30;;;;;;;23.12;100.00;97703.06;4973422;28;20237;-70
2021/08/17 03:34:49;;;;;;;3.07;2.73;;;;;;;23.14;100.00;97703.94;4975151;28;20297;-70
2021/08/17 03:37:15;;;;;;;4.97;3.27;;;;;;;23.17;100.00;97717.72;4958556;28;20321;-70
2021/08/17 03:39:42;;;;;;;4.10;3.10;;;;;;;23.18;100.00;97708.34;4975143;28;20393;-72
2021/08/17 03:42:09;;;;;;;3.70;3.00;;;;;;;23.18;100.00;97709.19;4973554;28;20611;-73
2021/08/17 03:44:35;;;;;;;4.03;3.63;;;;;;;23.18;100.00;97721.16;4976803;28;20294;-71
2021/08/17 03:47:02;;;;;;;4.77;3.10;;;;;;;23.14;100.00;97711.63;4976381;28;20213;-67
2021/08/17 03:49:29;;;;;;;3.40;3.10;;;;;;;23.19;100.00;97725.44;4974854;28;20261;-74
2021/08/17 03:51:55;;;;;;;5.07;3.50;;;;;;;23.17;100.00;97720.28;4987871;28;20727;-74
2021/08/17 03:54:22;;;;;;;3.53;3.23;;;;;;;23.12;100.00;97718.44;4976486;28;20652;-68
2021/08/17 03:56:48;;;;;;;5.17;3.00;;;;;;;23.18;100.00;97724.56;4976177;28;20309;-72
2021/08/17 03:59:15;;;;;;;3.67;3.27;;;;;;;23.19;100.00;97734.03;4975969;28;20540;-73
2021/08/17 04:01:41;;;;;;;4.17;3.10;;;;;;;23.09;100.00;97720.88;4973802;28;20312;-69
2021/08/17 04:04:08;;;;;;;3.57;3.20;;;;;;;23.12;100.00;97731.25;4980067;28;20207;-73
2021/08/17 04:06:35;;;;;;;3.67;3.23;;;;;;;23.19;100.00;97743.41;4958063;28;20277;-73
2021/08/17 04:09:01;;;;;;;3.50;3.20;;;;;;;23.19;100.00;97756.22;4973899;28;20237;-70
2021/08/17 04:11:28;;;;;;;3.63;2.93;;;;;;;23.11;100.00;97744.88;4976208;28;20317;-74
2021/08/17 04:13:55;;;;;;;4.10;3.37;;;;;;;23.18;100.00;97752.78;4975173;28;20313;-67
2021/08/17 04:16:21;;;;;;;4.57;3.33;;;;;;;23.18;100.00;97759.63;4974987;28;20697;-67
2021/08/17 04:18:48;;;;;;;3.83;3.30;;;;;;;23.20;100.00;97763.06;4972105;28;20211;-66
2021/08/17 04:21:14;;;;;;;3.40;3.10;;;;;;;23.18;100.00;97767.31;4969088;28;20246;-69
2021/08/17 04:23:41;;;;;;;4.17;2.97;;;;;;;23.19;100.00;97777.59;4971408;28;20317;-67
2021/08/17 04:26:08;;;;;;;4.07;3.07;;;;;;;23.12;100.00;97762.03;4972825;28;20261;-68
2021/08/17 04:28:34;;;;;;;3.43;2.93;;;;;;;23.19;100.00;97777.59;4954711;28;20392;-75
2021/08/17 04:31:01;;;;;;;3.97;3.57;;;;;;;23.20;100.00;97778.47;4983806;28;20226;-75
2021/08/17 04:33:28;;;;;;;3.43;2.90;;;;;;;23.20;100.00;97784.47;4954441;28;20238;-70
2021/08/17 04:35:54;;;;;;;3.87;3.47;;;;;;;23.16;100.00;97781.78;4972214;28;20264;-70
2021/08/17 04:38:21;;;;;;;3.57;3.23;;;;;;;23.16;100.00;97790.34;4971507;28;20796;-73
2021/08/17 04:40:47;;;;;;;4.10;3.00;;;;;;;23.21;100.00;97790.47;4969580;28;20295;-72
2021/08/17 04:43:14;;;;;;;4.03;2.93;;;;;;;23.12;100.00;97782.53;4953773;28;20333;-69
2021/08/17 04:45:41;;;;;;;3.50;3.20;;;;;;;23.16;100.00;97797.16;4955160;28;21080;-70
2021/08/17 04:48:07;;;;;;;3.13;2.83;;;;;;;23.19;100.00;97797.25;4970954;28;20258;-67
2021/08/17 04:50:34;;;;;;;4.77;3.57;;;;;;;23.11;100.00;97781.66;4976624;28;20825;-67
2021/08/17 04:53:01;;;;;;;3.93;3.07;;;;;;;23.20;100.00;97804.97;4972436;28;20313;-69
2021/08/17 04:55:28;;;;;;;3.50;2.80;;;;;;;23.17;100.00;97796.31;4980987;28;20834;-71
2021/08/17 04:57:56;;;;;;;3.23;2.70;;;;;;;23.17;100.00;97793.75;4972589;28;20356;-68
2021/08/17 05:00:23;;;;;;;3.93;3.17;;;;;;;23.12;100.00;97795.34;4975476;28;21155;-72
2021/08/17 05:02:50;;;;;;;3.60;3.10;;;;;;;22.89;100.00;97757.94;4970887;28;20231;-69
2021/08/17 05:05:17;;;;;;;3.73;3.17;;;;;;;23.12;100.00;97806.44;4974733;28;20206;-73
2021/08/17 05:07:44;;;;;;;4.53;3.30;;;;;;;22.89;100.00;97760.53;4978286;28;20702;-74
2021/08/17 05:10:13;;;;;;;3.27;2.97;;;;;;;23.14;100.00;97806.50;4971388;28;20226;-69
2021/08/17 05:12:40;;;;;;;3.60;3.30;;;;;;;23.14;100.00;97803.94;4975568;28;21566;-68
2021/08/17 05:15:07;;;;;;;3.50;3.10;;;;;;;23.11;100.00;97803.84;4971229;28;20329;-71
2021/08/17 05:17:41;;;;;;;3.33;3.03;;;;;;;22.83;100.00;97763.75;4976444;28;20583;-69
2021/08/17 05:20:09;;;;;;;3.47;2.90;;;;;;;22.89;100.00;97766.50;4971446;28;20273;-69
2021/08/17 05:22:35;;;;;;;3.40;3.10;;;;;;;23.06;100.00;97800.28;4957239;28;20336;-74
2021/08/17 05:25:02;;;;;;;4.57;2.90;;;;;;;23.14;100.00;97815.06;4976728;28;20298;-73
2021/08/17 05:27:28;;;;;;;3.27;2.93;;;;;;;23.15;100.00;97813.38;4974690;28;20294;-74
2021/08/17 05:29:56;;;;;;;3.10;2.80;;;;;;;23.15;100.00;97819.34;4976208;28;20292;-74
2021/08/17 05:32:22;;;;;;;4.53;2.90;;;;;;;23.16;100.00;97822.81;4969370;28;20318;-70
2021/08/17 05:34:49;;;;;;;3.60;2.80;;;;;;;23.16;100.00;97820.25;4970004;28;20269;-70
2021/08/17 05:37:16;;;;;;;3.07;2.77;;;;;;;23.17;100.00;97827.09;4969606;28;20285;-70
2021/08/17 05:39:42;;;;;;;2.93;2.63;;;;;;;23.10;100.00;97817.50;4970744;28;20215;-74
2021/08/17 05:42:10;;;;;;;3.20;2.90;;;;;;;22.78;100.00;97760.22;4978741;22;20341;-65
2021/08/17 05:44:40;;;;;;;3.43;3.00;;;;;;;23.18;100.00;97831.41;4966737;28;20427;-66
2021/08/17 05:47:07;;;;;;;3.10;2.80;;;;;;;23.17;100.00;97829.66;4970615;28;20237;-67
2021/08/17 05:49:36;;;;;;;3.40;3.10;;;;;;;23.18;100.00;97841.66;4986580;28;20891;-68
2021/08/17 05:52:10;;;;;;;3.10;2.80;;;;;;;23.18;100.00;97836.53;4968912;28;20237;-66
2021/08/17 05:54:37;;;;;;;3.70;3.00;;;;;;;23.18;100.00;97844.22;4950790;28;20212;-65
2021/08/17 05:57:03;;;;;;;3.27;2.97;;;;;;;23.19;100.00;97840.84;4951211;28;20314;-68
2021/08/17 05:59:30;;;;;;;3.03;2.73;;;;;;;23.15;100.00;97842.44;4951994;28;20306;-68
2021/08/17 06:01:59;;;;;;;3.33;3.00;;;;;;;23.19;99.76;97854.53;4947301;28;20291;-67
2021/08/17 06:04:26;;;;;;;3.00;2.70;;;;;;;23.15;100.00;97844.16;4953973;28;20243;-66
2021/08/17 06:06:52;;;;;;;3.67;3.10;;;;;;;23.14;99.85;97845.84;4954051;28;20207;-67
2021/08/17 06:09:19;;;;;;;3.53;2.70;;;;;;;23.12;99.93;97851.75;4937674;28;20211;-65
2021/08/17 06:11:49;;;;;;;3.37;3.00;;;;;;;23.20;99.90;97861.38;4950849;28;20353;-66
2021/08/17 06:14:16;;;;;;;4.17;2.90;;;;;;;23.20;100.00;97865.63;4952684;28;20777;-66
2021/08/17 06:16:42;;;;;;;2.87;2.60;;;;;;;23.20;99.90;97871.66;4954421;28;20343;-65
2021/08/17 06:19:09;;;;;;;2.97;2.67;;;;;;;23.20;99.69;97879.34;4954808;28;20777;-67
2021/08/17 06:21:36;;;;;;;3.43;2.90;;;;;;;23.21;99.64;97890.47;4952133;28;20200;-65
2021/08/17 06:24:03;;;;;;;3.00;2.70;;;;;;;23.22;99.57;97894.78;4954406;28;20326;-66
2021/08/17 06:26:30;;;;;;;2.80;2.53;;;;;;;23.20;99.85;97889.59;4953000;28;20318;-67
2021/08/17 06:28:57;;;;;;;3.03;2.73;;;;;;;23.16;99.60;97890.34;4954297;28;20270;-64
2021/08/17 06:31:23;;;;;;;4.57;2.80;;;;;;;23.03;99.86;97864.28;4951376;28;20336;-66
2021/08/17 06:33:51;;;;;;;3.77;2.80;;;;;;;23.21;99.68;97896.44;4936134;28;20239;-67
2021/08/17 06:36:18;;;;;;;2.97;2.67;;;;;;;23.22;99.47;97898.22;4955233;28;20342;-67
2021/08/17 06:38:45;;;;;;;3.13;2.80;;;;;;;23.11;99.51;97876.50;4952346;28;20310;-66
2021/08/17 06:41:11;;;;;;;2.90;2.67;;;;;;;23.22;99.48;97895.66;4950796;28;20585;-66
2021/08/17 06:43:38;;;;;;;2.80;2.60;;;;;;;23.22;99.34;97897.34;4952482;28;20263;-66
2021/08/17 06:46:04;;;;;;;3.57;3.07;;;;;;;23.22;99.54;97897.34;4953752;28;20299;-66
2021/08/17 06:48:31;;;;;;;3.40;2.70;;;;;;;23.21;99.48;97891.31;4954452;28;20222;-66
2021/08/17 06:50:58;;;;;;;2.93;2.63;;;;;;;23.23;99.64;97899.06;4949500;28;20280;-67
2021/08/17 06:53:25;;;;;;;3.33;2.80;;;;;;;23.23;99.49;97888.81;4953699;28;20231;-67
2021/08/17 06:55:52;;;;;;;3.00;2.70;;;;;;;23.22;99.35;97887.97;4951293;28;20211;-64
2021/08/17 06:58:19;;;;;;;2.80;2.60;;;;;;;22.84;99.27;97821.00;4951643;28;20212;-66
2021/08/17 07:00:46;;;;;;;5.10;2.70;;;;;;;23.21;99.24;97898.16;4949785;28;20298;-66
2021/08/17 07:03:13;;;;;;;3.53;2.70;;;;;;;23.15;99.56;97892.88;4951276;28;20292;-65
2021/08/17 07:05:42;;;;;;;4.60;2.90;;;;;;;23.18;99.55;97898.94;4951974;28;20211;-64
2021/08/17 07:08:10;;;;;;;3.70;2.43;;;;;;;23.17;99.48;97892.06;4951949;28;20322;-67
2021/08/17 07:10:37;;;;;;;2.80;2.60;;;;;;;23.16;99.79;97898.03;4949578;28;20870;-66
2021/08/17 07:13:18;;;;;;;3.27;2.60;;;;;;;23.16;99.91;97887.78;4952503;28;20228;-67
2021/08/17 07:15:44;;;;;;;2.87;2.57;;;;;;;23.15;99.65;97886.03;4952999;28;20669;-64
2021/08/17 07:18:11;;;;;;;2.90;2.53;;;;;;;23.15;99.73;97896.28;4951836;28;20893;-65
2021/08/17 07:20:38;;;;;;;2.97;2.67;;;;;;;23.15;99.73;97900.56;4951852;28;20293;-64
2021/08/17 07:23:05;;;;;;;2.87;2.60;;;;;;;23.15;99.69;97898.00;4951635;28;20322;-67
2021/08/17 07:25:32;;;;;;;3.20;2.90;;;;;;;23.16;99.61;97886.91;4953828;28;20238;-67
2021/08/17 07:27:58;;;;;;;3.53;2.80;;;;;;;22.95;99.66;97858.94;4952014;28;20247;-68
2021/08/17 07:30:25;;;;;;;2.90;2.60;;;;;;;22.96;99.50;97865.81;4950134;28;20630;-65
2021/08/17 07:32:52;;;;;;;2.60;2.40;;;;;;;23.16;99.34;97894.59;4950672;28;20231;-67
2021/08/17 07:35:20;;;;;;;3.97;3.13;;;;;;;23.17;99.34;97888.63;4952823;28;20302;-65
2021/08/17 07:37:47;;;;;;;2.90;2.70;;;;;;;23.16;99.46;97880.09;4952063;28;20302;-65
2021/08/17 07:40:15;;;;;;;3.20;2.90;;;;;;;23.12;99.50;97874.84;4952165;28;20621;-67
2021/08/17 07:42:41;;;;;;;2.90;2.60;;;;;;;23.17;99.57;97884.38;4910383;28;1135879;-66
2021/08/17 07:45:09;;;;;;;2.87;2.67;;;;;;;23.17;99.29;97883.50;4953584;28;20306;-67
2021/08/17 07:47:36;;;;;;;2.80;2.50;;;;;;;23.17;99.42;97892.06;4953370;28;20203;-64
2021/08/17 07:50:04;;;;;;;3.07;2.60;;;;;;;23.17;99.35;97897.19;4954507;28;20282;-68
2021/08/17 07:52:34;;;;;;;3.00;2.70;;;;;;;23.19;99.22;97907.50;4950425;28;20307;-67
2021/08/17 07:55:02;;;;;;;2.90;2.60;;;;;;;23.14;99.27;97902.25;4954680;28;20569;-67
2021/08/17 07:57:29;;;;;;;2.87;2.57;;;;;;;23.19;99.18;97916.06;4955400;28;20306;-65
2021/08/17 07:59:57;;;;;;;3.10;2.80;;;;;;;23.10;99.21;97892.75;4957016;28;20303;-67
2021/08/17 08:02:27;;;;;;;2.90;2.60;;;;;;;23.20;99.24;97917.81;4952740;28;20794;-66
2021/08/17 08:04:54;;;;;;;3.70;2.80;;;;;;;23.20;99.17;97907.53;4956863;28;20519;-65
2021/08/17 08:07:21;;;;;;;2.90;2.63;;;;;;;23.20;99.20;97906.66;4957287;28;20223;-66
2021/08/17 08:09:47;;;;;;;2.47;2.27;;;;;;;23.15;99.30;97901.41;4958239;28;20231;-67
2021/08/17 08:12:14;;;;;;;3.27;2.90;;;;;;;23.20;98.86;97915.25;4953557;28;20239;-67
2021/08/17 08:14:41;;;;;;;4.40;2.30;;;;;;;23.21;99.14;97901.59;4954639;28;20230;-67
2021/08/17 08:17:07;;;;;;;2.87;2.60;;;;;;;23.21;99.06;97899.03;4956962;28;20199;-67
2021/08/17 08:19:35;;;;;;;3.27;2.40;;;;;;;23.22;98.93;97905.03;4957032;28;20608;-66
2021/08/17 08:22:03;;;;;;;3.67;2.80;;;;;;;23.22;99.18;97902.47;4954491;28;20227;-64
2021/08/17 08:24:30;;;;;;;2.60;2.40;;;;;;;23.22;98.98;97899.91;4956356;28;20262;-68
2021/08/17 08:26:56;;;;;;;3.40;2.43;;;;;;;23.22;99.13;97900.78;4956384;28;20334;-67
2021/08/17 08:29:23;;;;;;;4.60;2.70;;;;;;;23.21;99.10;97899.03;4956660;28;20227;-66
2021/08/17 08:31:49;;;;;;;2.93;2.63;;;;;;;23.22;99.06;97898.22;4936044;28;20326;-66
2021/08/17 08:34:16;;;;;;;2.80;2.60;;;;;;;23.21;98.91;97893.88;4955937;28;20309;-65
2021/08/17 08:36:43;;;;;;;2.60;2.40;;;;;;;23.22;98.96;97890.53;4955691;28;20211;-67
2021/08/17 08:39:10;;;;;;;2.83;2.53;;;;;;;23.22;98.84;97895.66;4957008;28;20875;-67
2021/08/17 08:41:38;;;;;;;2.60;2.30;;;;;;;23.22;98.96;97889.63;4954267;28;20302;-66
2021/08/17 08:44:05;;;;;;;2.73;2.53;;;;;;;23.22;98.99;97897.34;4938567;28;20236;-67
2021/08/17 08:46:32;;;;;;;3.03;2.73;;;;;;;23.23;98.90;97893.94;4957157;28;20326;-67
2021/08/17 08:48:59;;;;;;;2.80;2.50;;;;;;;23.23;98.74;97896.50;4938555;28;20219;-67
2021/08/17 08:51:25;;;;;;;2.73;2.53;;;;;;;23.23;98.72;97896.50;4954445;28;20298;-67
2021/08/17 08:54:05;;;;;;;2.60;2.40;;;;;;;23.22;98.80;97898.22;4956212;28;20235;-66
2021/08/17 08:56:31;;;;;;;2.70;2.50;;;;;;;23.22;98.81;97895.66;4956897;28;20242;-66
2021/08/17 08:58:58;;;;;;;2.87;2.67;;;;;;;23.23;98.88;97911.88;4954923;28;20306;-67
2021/08/17 09:01:24;;;;;;;2.40;2.20;;;;;;;23.22;98.61;97908.47;4952262;28;20199;-66
2021/08/17 09:03:52;;;;;;;2.63;2.43;;;;;;;23.22;98.67;97905.91;4953569;28;20608;-66
2021/08/17 09:06:26;;;;;;;2.60;2.40;;;;;;;23.23;98.60;97906.75;4954830;28;20211;-66
2021/08/17 09:09:03;;;;;;;2.60;2.40;;;;;;;23.23;98.79;97915.31;4955339;28;20311;-68
2021/08/17 09:11:30;;;;;;;2.60;2.40;;;;;;;23.23;98.93;97909.31;4954236;28;20325;-66
2021/08/17 09:13:57;;;;;;;2.63;2.43;;;;;;;23.22;98.90;97899.91;4955598;28;20262;-67
2021/08/17 09:16:31;;;;;;;3.80;2.57;;;;;;;23.06;98.75;97875.50;4938225;28;20207;-65
2021/08/17 09:18:58;;;;;;;3.67;2.50;;;;;;;23.20;98.71;97896.41;4937895;28;20210;-67
2021/08/17 09:21:32;;;;;;;2.83;2.47;;;;;;;23.14;99.05;97893.66;4954021;28;20235;-66
2021/08/17 09:24:20;;;;;;;2.50;2.30;;;;;;;23.17;99.07;97896.31;4953862;28;20314;-64
2021/08/17 09:26:57;;;;;;;2.73;2.23;;;;;;;23.18;99.09;97905.78;4953871;28;20596;-65
2021/08/17 09:29:35;;;;;;;3.10;2.63;;;;;;;23.14;99.12;97893.66;4938546;28;20277;-68
2021/08/17 09:32:12;;;;;;;2.60;2.40;;;;;;;23.17;99.07;97902.34;4951418;28;20672;-66
2021/08/17 09:34:39;;;;;;;2.93;2.30;;;;;;;23.17;99.25;97906.56;4955874;28;20265;-66
2021/08/17 09:37:11;;;;;;;3.50;2.90;;;;;;;23.17;99.24;97907.47;4953556;28;20407;-64
2021/08/17 09:39:48;;;;;;;2.87;2.40;;;;;;;21.87;98.80;97670.41;4954767;28;20311;-66
2021/08/17 09:42:21;;;;;;;2.70;2.50;;;;;;;23.17;99.02;97888.63;4951278;28;20286;-66
2021/08/17 09:45:07;;;;;;;2.70;2.50;;;;;;;23.17;99.23;97902.34;4955386;28;20246;-67
2021/08/17 09:47:35;;;;;;;2.70;2.50;;;;;;;23.18;98.95;97892.94;4955019;28;20211;-66
2021/08/17 09:50:16;;;;;;;3.70;2.30;;;;;;;23.18;99.04;97886.09;4954367;28;20269;-65
2021/08/17 09:52:42;;;;;;;2.63;2.40;;;;;;;23.18;98.92;97888.66;4950830;28;20254;-66
2021/08/17 09:55:17;;;;;;;2.70;2.50;;;;;;;23.18;99.17;97888.66;4953883;28;20402;-67
2021/08/17 09:57:44;;;;;;;2.43;2.20;;;;;;;23.04;99.15;97855.78;4938188;28;20234;-65
2021/08/17 10:00:14;;;;;;;3.20;2.90;;;;;;;23.19;99.04;97876.72;4937418;28;20657;-66
2021/08/17 10:02:43;;;;;;;3.00;2.40;;;;;;;23.15;98.93;97875.75;4953136;28;20263;-68
2021/08/17 10:05:14;;;;;;;2.63;2.23;;;;;;;23.15;99.01;97880.88;4938543;28;20303;-65
2021/08/17 10:07:41;;;;;;;2.53;2.33;;;;;;;23.20;98.95;97879.34;4953291;28;20243;-65
2021/08/17 10:10:09;;;;;;;2.47;2.27;;;;;;;23.21;98.99;97877.66;4953859;28;20318;-65
2021/08/17 10:12:36;;;;;;;3.17;2.53;;;;;;;23.16;98.86;97871.53;4952932;28;20366;-66
2021/08/17 10:15:05;;;;;;;2.30;2.10;;;;;;;23.21;98.74;97882.78;4937690;28;20330;-67
2021/08/17 10:17:31;;;;;;;2.57;2.37;;;;;;;23.21;99.27;97877.66;4954016;28;20736;-67
2021/08/17 10:19:58;;;;;;;2.57;2.37;;;;;;;23.21;99.06;97875.94;4955420;28;20231;-67
2021/08/17 10:22:25;;;;;;;2.60;2.37;;;;;;;23.21;98.38;97869.97;4950640;28;20275;-66
2021/08/17 10:24:51;;;;;;;2.40;2.07;;;;;;;23.20;98.88;97868.19;4952968;28;20350;-66
2021/08/17 10:27:26;;;;;;;2.90;2.30;;;;;;;23.15;98.80;97855.25;4953139;28;20234;-66
2021/08/17 10:30:11;;;;;;;2.60;2.40;;;;;;;23.22;98.64;97871.69;4953102;28;20212;-64
2021/08/17 10:32:42;;;;;;;3.90;2.20;;;;;;;23.16;98.85;97858.69;4951722;28;20330;-66
2021/08/17 10:35:32;;;;;;;2.40;2.20;;;;;;;23.21;98.63;97858.00;4952432;28;20745;-65
2021/08/17 10:38:10;;;;;;;2.60;2.40;;;;;;;23.20;98.72;97853.69;4954956;28;20298;-67
2021/08/17 10:40:52;;;;;;;3.00;2.13;;;;;;;23.22;98.88;97848.63;4952193;28;20238;-67
2021/08/17 10:43:31;;;;;;;2.40;2.20;;;;;;;23.21;98.74;97839.19;4954709;28;20795;-65
2021/08/17 10:46:05;;;;;;;2.40;2.20;;;;;;;23.21;98.67;97844.31;4954136;28;20419;-67
2021/08/17 10:48:44;;;;;;;2.40;2.20;;;;;;;23.22;98.61;97834.09;4953055;28;20212;-63
2021/08/17 10:51:17;;;;;;;2.37;2.17;;;;;;;23.21;98.61;97842.59;4951933;28;20235;-64
2021/08/17 10:53:46;;;;;;;3.90;2.07;;;;;;;23.22;98.58;97828.09;4954300;28;20308;-65
2021/08/17 10:56:17;;;;;;;2.40;2.20;;;;;;;23.22;98.63;97836.66;4937844;28;20229;-66
2021/08/17 10:58:45;;;;;;;2.63;2.43;;;;;;;23.21;98.36;97832.34;4952761;28;20247;-68
2021/08/17 11:01:12;;;;;;;2.40;2.20;;;;;;;23.22;98.47;97836.66;4952353;28;20287;-67
2021/08/17 11:03:41;;;;;;;2.57;2.37;;;;;;;23.22;98.59;97833.22;4951812;28;20262;-67
2021/08/17 11:06:08;;;;;;;3.07;2.33;;;;;;;23.22;98.69;97828.09;4954486;28;20231;-66
2021/08/17 11:08:38;;;;;;;2.60;2.40;;;;;;;23.22;98.58;97834.09;4954828;28;20286;-68
2021/08/17 11:11:17;;;;;;;2.47;2.27;;;;;;;23.22;98.43;97823.84;4951282;28;20223;-65
2021/08/17 11:14:05;;;;;;;4.37;2.20;;;;;;;23.22;98.36;97820.41;4952315;28;20237;-65
2021/08/17 11:16:33;;;;;;;2.63;2.00;;;;;;;23.22;98.18;97818.72;4954610;28;20331;-67
2021/08/17 11:19:01;;;;;;;2.50;2.30;;;;;;;22.86;98.29;97761.28;4952979;28;20208;-65
2021/08/17 11:21:47;;;;;;;2.30;2.10;;;;;;;23.16;98.49;97820.25;4934492;28;20662;-67
2021/08/17 11:24:34;;;;;;;2.50;2.23;;;;;;;23.18;98.47;97829.69;4954339;28;20741;-65
2021/08/17 11:27:01;;;;;;;2.10;2.00;;;;;;;23.17;98.72;97825.41;4954594;28;20706;-65
2021/08/17 11:29:32;;;;;;;2.50;2.30;;;;;;;22.83;98.85;97768.03;4954616;28;20740;-65
2021/08/17 11:32:02;;;;;;;2.60;2.40;;;;;;;23.16;98.67;97817.66;4953871;28;20699;-66
2021/08/17 11:34:31;;;;;;;2.33;2.13;;;;;;;23.10;98.86;97813.25;4956859;28;20265;-66